sensor_id;sensor_type;location;lat;lon;timestamp;P1;durP1;ratioP1;P2;durP2;ratioP2
36441;SDS011;64346;50.820;16.274;2023-02-22T00:00:24;16.88;;;3.42;;
36441;SDS011;64346;50.820;16.274;2023-02-22T00:03:18;16.52;;;3.38;;
36441;SDS011;64346;50.820;16.274;2023-02-22T00:05:48;13.75;;;3.58;;
36441;SDS011;64346;50.820;16.274;2023-02-22T00:08:16;17.67;;;5.00;;
36441;SDS011;64346;50.820;16.274;2023-02-22T00:10:43;23.40;;;4.95;;
36441;SDS011;64346;50.820;16.274;2023-02-22T00:13:13;14.40;;;3.75;;
36441;SDS011;64346;50.820;16.274;2023-02-22T00:15:47;18.55;;;3.35;;
36441;SDS011;64346;50.820;16.274;2023-02-22T00:18:18;16.80;;;3.75;;
36441;SDS011;64346;50.820;16.274;2023-02-22T00:20:48;18.70;;;4.57;;
36441;SDS011;64346;50.820;16.274;2023-02-22T00:23:16;17.33;;;4.40;;
36441;SDS011;64346;50.820;16.274;2023-02-22T00:25:52;17.25;;;4.32;;
36441;SDS011;64346;50.820;16.274;2023-02-22T00:28:21;16.05;;;3.72;;
36441;SDS011;64346;50.820;16.274;2023-02-22T00:30:51;21.05;;;4.75;;
36441;SDS011;64346;50.820;16.274;2023-02-22T00:33:24;13.18;;;3.40;;
36441;SDS011;64346;50.820;16.274;2023-02-22T00:35:51;18.40;;;3.60;;
36441;SDS011;64346;50.820;16.274;2023-02-22T00:38:27;20.73;;;4.82;;
36441;SDS011;64346;50.820;16.274;2023-02-22T00:40:57;15.27;;;3.60;;
36441;SDS011;64346;50.820;16.274;2023-02-22T00:43:27;18.80;;;4.53;;
36441;SDS011;64346;50.820;16.274;2023-02-22T00:45:57;15.77;;;3.97;;
36441;SDS011;64346;50.820;16.274;2023-02-22T00:48:25;14.52;;;3.30;;
36441;SDS011;64346;50.820;16.274;2023-02-22T00:50:52;18.20;;;3.78;;
36441;SDS011;64346;50.820;16.274;2023-02-22T00:53:20;16.83;;;3.83;;
36441;SDS011;64346;50.820;16.274;2023-02-22T00:55:49;18.60;;;4.25;;
36441;SDS011;64346;50.820;16.274;2023-02-22T00:58:19;15.63;;;3.60;;
36441;SDS011;64346;50.820;16.274;2023-02-22T01:00:51;15.85;;;4.65;;
36441;SDS011;64346;50.820;16.274;2023-02-22T01:03:18;18.77;;;4.07;;
36441;SDS011;64346;50.820;16.274;2023-02-22T01:05:47;10.48;;;3.22;;
36441;SDS011;64346;50.820;16.274;2023-02-22T01:08:14;16.73;;;3.22;;
36441;SDS011;64346;50.820;16.274;2023-02-22T01:10:45;15.75;;;3.38;;
36441;SDS011;64346;50.820;16.274;2023-02-22T01:13:15;17.10;;;3.80;;
36441;SDS011;64346;50.820;16.274;2023-02-22T01:15:42;17.30;;;3.40;;
36441;SDS011;64346;50.820;16.274;2023-02-22T01:18:10;14.80;;;3.65;;
36441;SDS011;64346;50.820;16.274;2023-02-22T01:20:37;16.77;;;3.83;;
36441;SDS011;64346;50.820;16.274;2023-02-22T01:23:14;12.75;;;3.17;;
36441;SDS011;64346;50.820;16.274;2023-02-22T01:25:41;15.82;;;3.25;;
36441;SDS011;64346;50.820;16.274;2023-02-22T01:28:08;14.38;;;3.20;;
36441;SDS011;64346;50.820;16.274;2023-02-22T01:30:38;13.90;;;3.67;;
36441;SDS011;64346;50.820;16.274;2023-02-22T01:33:06;12.30;;;3.00;;
36441;SDS011;64346;50.820;16.274;2023-02-22T01:35:35;12.55;;;3.72;;
36441;SDS011;64346;50.820;16.274;2023-02-22T01:38:05;10.63;;;3.35;;
36441;SDS011;64346;50.820;16.274;2023-02-22T01:40:33;11.73;;;3.30;;
36441;SDS011;64346;50.820;16.274;2023-02-22T01:43:03;12.07;;;3.55;;
36441;SDS011;64346;50.820;16.274;2023-02-22T01:45:52;15.30;;;3.60;;
36441;SDS011;64346;50.820;16.274;2023-02-22T01:51:01;9.98;;;3.47;;
36441;SDS011;64346;50.820;16.274;2023-02-22T01:53:56;9.45;;;2.55;;
36441;SDS011;64346;50.820;16.274;2023-02-22T01:56:29;8.35;;;2.75;;
36441;SDS011;64346;50.820;16.274;2023-02-22T01:59:02;9.05;;;3.47;;
36441;SDS011;64346;50.820;16.274;2023-02-22T02:01:34;9.73;;;2.97;;
36441;SDS011;64346;50.820;16.274;2023-02-22T02:04:08;13.63;;;3.47;;
36441;SDS011;64346;50.820;16.274;2023-02-22T02:06:40;13.07;;;3.50;;
36441;SDS011;64346;50.820;16.274;2023-02-22T02:09:13;11.18;;;3.05;;
36441;SDS011;64346;50.820;16.274;2023-02-22T02:11:53;12.43;;;4.65;;
36441;SDS011;64346;50.820;16.274;2023-02-22T02:14:20;10.43;;;3.40;;
36441;SDS011;64346;50.820;16.274;2023-02-22T02:16:48;11.63;;;3.50;;
36441;SDS011;64346;50.820;16.274;2023-02-22T02:19:23;12.75;;;3.15;;
36441;SDS011;64346;50.820;16.274;2023-02-22T02:38:21;9.32;;;2.92;;
36441;SDS011;64346;50.820;16.274;2023-02-22T02:41:18;6.95;;;2.97;;
36441;SDS011;64346;50.820;16.274;2023-02-22T02:44:11;8.15;;;3.50;;
36441;SDS011;64346;50.820;16.274;2023-02-22T02:46:54;8.23;;;2.75;;
36441;SDS011;64346;50.820;16.274;2023-02-22T02:52:22;7.78;;;3.08;;
36441;SDS011;64346;50.820;16.274;2023-02-22T02:54:51;8.65;;;2.88;;
36441;SDS011;64346;50.820;16.274;2023-02-22T02:57:20;11.75;;;5.75;;
36441;SDS011;64346;50.820;16.274;2023-02-22T02:59:50;12.70;;;3.55;;
36441;SDS011;64346;50.820;16.274;2023-02-22T03:15:31;10.27;;;3.08;;
36441;SDS011;64346;50.820;16.274;2023-02-22T03:20:54;7.47;;;2.40;;
36441;SDS011;64346;50.820;16.274;2023-02-22T03:26:57;8.60;;;2.40;;
36441;SDS011;64346;50.820;16.274;2023-02-22T03:29:40;7.03;;;1.95;;
36441;SDS011;64346;50.820;16.274;2023-02-22T03:32:15;20.13;;;7.90;;
36441;SDS011;64346;50.820;16.274;2023-02-22T03:35:00;13.77;;;5.35;;
36441;SDS011;64346;50.820;16.274;2023-02-22T03:37:36;11.23;;;4.72;;
36441;SDS011;64346;50.820;16.274;2023-02-22T03:40:12;7.53;;;2.55;;
36441;SDS011;64346;50.820;16.274;2023-02-22T03:42:51;7.80;;;2.30;;
36441;SDS011;64346;50.820;16.274;2023-02-22T03:45:21;8.60;;;2.20;;
36441;SDS011;64346;50.820;16.274;2023-02-22T03:47:52;5.13;;;2.50;;
36441;SDS011;64346;50.820;16.274;2023-02-22T03:50:28;6.18;;;2.90;;
36441;SDS011;64346;50.820;16.274;2023-02-22T03:53:01;8.80;;;2.88;;
36441;SDS011;64346;50.820;16.274;2023-02-22T03:55:32;5.20;;;2.20;;
36441;SDS011;64346;50.820;16.274;2023-02-22T03:58:00;5.65;;;2.35;;
36441;SDS011;64346;50.820;16.274;2023-02-22T04:03:22;10.15;;;2.80;;
36441;SDS011;64346;50.820;16.274;2023-02-22T04:05:52;10.98;;;2.45;;
36441;SDS011;64346;50.820;16.274;2023-02-22T04:08:21;8.98;;;2.60;;
36441;SDS011;64346;50.820;16.274;2023-02-22T04:10:49;9.10;;;3.05;;
36441;SDS011;64346;50.820;16.274;2023-02-22T04:13:18;12.85;;;3.50;;
36441;SDS011;64346;50.820;16.274;2023-02-22T04:15:45;7.05;;;2.22;;
36441;SDS011;64346;50.820;16.274;2023-02-22T04:18:13;6.75;;;2.75;;
36441;SDS011;64346;50.820;16.274;2023-02-22T04:20:41;6.82;;;2.40;;
36441;SDS011;64346;50.820;16.274;2023-02-22T04:23:08;8.20;;;2.92;;
36441;SDS011;64346;50.820;16.274;2023-02-22T04:25:37;6.18;;;3.00;;
36441;SDS011;64346;50.820;16.274;2023-02-22T04:28:04;7.80;;;2.85;;
36441;SDS011;64346;50.820;16.274;2023-02-22T04:30:34;10.35;;;3.03;;
36441;SDS011;64346;50.820;16.274;2023-02-22T04:33:01;7.15;;;3.80;;
36441;SDS011;64346;50.820;16.274;2023-02-22T04:35:31;7.68;;;3.25;;
36441;SDS011;64346;50.820;16.274;2023-02-22T04:38:01;10.93;;;3.97;;
36441;SDS011;64346;50.820;16.274;2023-02-22T04:40:28;9.15;;;3.08;;
36441;SDS011;64346;50.820;16.274;2023-02-22T04:42:56;9.90;;;2.70;;
36441;SDS011;64346;50.820;16.274;2023-02-22T04:45:23;7.20;;;2.67;;
36441;SDS011;64346;50.820;16.274;2023-02-22T04:47:50;8.27;;;2.83;;
36441;SDS011;64346;50.820;16.274;2023-02-22T04:50:20;9.35;;;2.50;;
36441;SDS011;64346;50.820;16.274;2023-02-22T04:52:49;8.05;;;2.53;;
36441;SDS011;64346;50.820;16.274;2023-02-22T04:55:17;6.05;;;2.42;;
36441;SDS011;64346;50.820;16.274;2023-02-22T04:57:44;5.05;;;2.33;;
36441;SDS011;64346;50.820;16.274;2023-02-22T05:00:14;11.13;;;4.07;;
36441;SDS011;64346;50.820;16.274;2023-02-22T05:02:44;10.05;;;4.05;;
36441;SDS011;64346;50.820;16.274;2023-02-22T05:05:15;8.98;;;2.70;;
36441;SDS011;64346;50.820;16.274;2023-02-22T05:10:14;11.80;;;3.50;;
36441;SDS011;64346;50.820;16.274;2023-02-22T05:12:41;11.10;;;3.65;;
36441;SDS011;64346;50.820;16.274;2023-02-22T05:15:15;10.00;;;3.88;;
36441;SDS011;64346;50.820;16.274;2023-02-22T05:17:47;11.73;;;3.47;;
36441;SDS011;64346;50.820;16.274;2023-02-22T05:20:16;11.23;;;3.80;;
36441;SDS011;64346;50.820;16.274;2023-02-22T05:22:49;12.30;;;4.32;;
36441;SDS011;64346;50.820;16.274;2023-02-22T05:25:17;12.93;;;4.43;;
36441;SDS011;64346;50.820;16.274;2023-02-22T05:27:44;13.05;;;4.25;;
36441;SDS011;64346;50.820;16.274;2023-02-22T05:30:15;9.98;;;4.05;;
36441;SDS011;64346;50.820;16.274;2023-02-22T05:32:43;9.15;;;3.20;;
36441;SDS011;64346;50.820;16.274;2023-02-22T05:35:12;9.45;;;2.92;;
36441;SDS011;64346;50.820;16.274;2023-02-22T05:37:39;10.15;;;3.30;;
36441;SDS011;64346;50.820;16.274;2023-02-22T05:40:07;12.23;;;3.40;;
36441;SDS011;64346;50.820;16.274;2023-02-22T05:42:37;10.93;;;3.28;;
36441;SDS011;64346;50.820;16.274;2023-02-22T05:45:05;13.20;;;4.53;;
36441;SDS011;64346;50.820;16.274;2023-02-22T05:47:35;18.38;;;5.68;;
36441;SDS011;64346;50.820;16.274;2023-02-22T05:50:03;18.10;;;6.53;;
36441;SDS011;64346;50.820;16.274;2023-02-22T05:52:32;17.42;;;8.23;;
36441;SDS011;64346;50.820;16.274;2023-02-22T05:55:05;22.25;;;8.65;;
36441;SDS011;64346;50.820;16.274;2023-02-22T05:57:35;23.25;;;11.70;;
36441;SDS011;64346;50.820;16.274;2023-02-22T06:00:05;25.60;;;12.05;;
36441;SDS011;64346;50.820;16.274;2023-02-22T06:02:34;27.13;;;11.20;;
36441;SDS011;64346;50.820;16.274;2023-02-22T06:05:02;24.95;;;12.02;;
36441;SDS011;64346;50.820;16.274;2023-02-22T06:07:31;21.75;;;10.55;;
36441;SDS011;64346;50.820;16.274;2023-02-22T06:09:58;25.75;;;9.52;;
36441;SDS011;64346;50.820;16.274;2023-02-22T06:12:25;22.95;;;8.38;;
36441;SDS011;64346;50.820;16.274;2023-02-22T06:14:53;19.92;;;8.20;;
36441;SDS011;64346;50.820;16.274;2023-02-22T06:17:20;22.70;;;9.13;;
36441;SDS011;64346;50.820;16.274;2023-02-22T06:19:47;23.23;;;8.55;;
36441;SDS011;64346;50.820;16.274;2023-02-22T06:22:15;19.48;;;9.43;;
36441;SDS011;64346;50.820;16.274;2023-02-22T06:24:44;25.17;;;9.00;;
36441;SDS011;64346;50.820;16.274;2023-02-22T06:27:14;25.48;;;12.18;;
36441;SDS011;64346;50.820;16.274;2023-02-22T06:29:43;22.77;;;11.43;;
36441;SDS011;64346;50.820;16.274;2023-02-22T06:32:14;24.65;;;12.27;;
36441;SDS011;64346;50.820;16.274;2023-02-22T06:34:41;26.10;;;13.50;;
36441;SDS011;64346;50.820;16.274;2023-02-22T06:37:08;26.45;;;13.35;;
36441;SDS011;64346;50.820;16.274;2023-02-22T06:39:36;26.95;;;13.70;;
36441;SDS011;64346;50.820;16.274;2023-02-22T06:42:03;29.67;;;13.85;;
36441;SDS011;64346;50.820;16.274;2023-02-22T06:44:30;25.83;;;14.45;;
36441;SDS011;64346;50.820;16.274;2023-02-22T06:47:00;26.20;;;13.30;;
36441;SDS011;64346;50.820;16.274;2023-02-22T06:49:27;25.75;;;13.40;;
36441;SDS011;64346;50.820;16.274;2023-02-22T06:51:54;31.50;;;17.58;;
36441;SDS011;64346;50.820;16.274;2023-02-22T06:54:22;30.83;;;16.15;;
36441;SDS011;64346;50.820;16.274;2023-02-22T06:56:51;30.13;;;17.33;;
36441;SDS011;64346;50.820;16.274;2023-02-22T06:59:19;29.88;;;15.63;;
36441;SDS011;64346;50.820;16.274;2023-02-22T07:01:48;30.75;;;15.63;;
36441;SDS011;64346;50.820;16.274;2023-02-22T07:04:17;22.30;;;13.10;;
36441;SDS011;64346;50.820;16.274;2023-02-22T07:06:49;24.35;;;12.35;;
36441;SDS011;64346;50.820;16.274;2023-02-22T07:09:21;22.98;;;12.15;;
36441;SDS011;64346;50.820;16.274;2023-02-22T07:11:48;27.17;;;12.18;;
36441;SDS011;64346;50.820;16.274;2023-02-22T07:14:16;26.27;;;12.85;;
36441;SDS011;64346;50.820;16.274;2023-02-22T07:16:46;26.83;;;12.48;;
36441;SDS011;64346;50.820;16.274;2023-02-22T07:19:14;25.23;;;12.73;;
36441;SDS011;64346;50.820;16.274;2023-02-22T07:21:41;25.27;;;12.07;;
36441;SDS011;64346;50.820;16.274;2023-02-22T07:24:08;24.23;;;13.10;;
36441;SDS011;64346;50.820;16.274;2023-02-22T07:26:39;28.23;;;14.05;;
36441;SDS011;64346;50.820;16.274;2023-02-22T07:31:38;28.00;;;14.07;;
36441;SDS011;64346;50.820;16.274;2023-02-22T07:34:08;24.30;;;11.10;;
36441;SDS011;64346;50.820;16.274;2023-02-22T07:36:35;28.90;;;12.50;;
36441;SDS011;64346;50.820;16.274;2023-02-22T07:39:03;24.77;;;12.30;;
36441;SDS011;64346;50.820;16.274;2023-02-22T07:41:32;26.05;;;11.27;;
36441;SDS011;64346;50.820;16.274;2023-02-22T07:44:00;35.53;;;20.60;;
36441;SDS011;64346;50.820;16.274;2023-02-22T07:46:29;31.50;;;14.65;;
36441;SDS011;64346;50.820;16.274;2023-02-22T07:48:59;26.80;;;13.45;;
36441;SDS011;64346;50.820;16.274;2023-02-22T07:51:28;25.58;;;11.00;;
36441;SDS011;64346;50.820;16.274;2023-02-22T07:53:56;26.30;;;12.98;;
36441;SDS011;64346;50.820;16.274;2023-02-22T07:56:23;24.83;;;11.40;;
36441;SDS011;64346;50.820;16.274;2023-02-22T07:58:52;32.65;;;14.20;;
36441;SDS011;64346;50.820;16.274;2023-02-22T08:01:19;30.27;;;14.25;;
36441;SDS011;64346;50.820;16.274;2023-02-22T08:03:47;33.22;;;13.93;;
36441;SDS011;64346;50.820;16.274;2023-02-22T08:06:16;32.33;;;14.13;;
36441;SDS011;64346;50.820;16.274;2023-02-22T08:08:44;24.55;;;11.55;;
36441;SDS011;64346;50.820;16.274;2023-02-22T08:11:11;26.92;;;11.10;;
36441;SDS011;64346;50.820;16.274;2023-02-22T08:13:41;25.05;;;11.32;;
36441;SDS011;64346;50.820;16.274;2023-02-22T08:16:08;21.73;;;10.25;;
36441;SDS011;64346;50.820;16.274;2023-02-22T08:18:35;21.30;;;9.60;;
36441;SDS011;64346;50.820;16.274;2023-02-22T08:21:03;21.75;;;10.35;;
36441;SDS011;64346;50.820;16.274;2023-02-22T08:23:33;21.73;;;9.70;;
36441;SDS011;64346;50.820;16.274;2023-02-22T08:26:04;28.48;;;13.75;;
36441;SDS011;64346;50.820;16.274;2023-02-22T08:28:35;31.60;;;14.13;;
36441;SDS011;64346;50.820;16.274;2023-02-22T08:31:02;34.70;;;15.07;;
36441;SDS011;64346;50.820;16.274;2023-02-22T08:33:33;29.73;;;13.30;;
36441;SDS011;64346;50.820;16.274;2023-02-22T08:36:02;26.88;;;12.68;;
36441;SDS011;64346;50.820;16.274;2023-02-22T08:38:32;27.73;;;13.23;;
36441;SDS011;64346;50.820;16.274;2023-02-22T08:40:59;26.60;;;12.50;;
36441;SDS011;64346;50.820;16.274;2023-02-22T08:43:26;31.63;;;13.27;;
36441;SDS011;64346;50.820;16.274;2023-02-22T08:45:54;33.03;;;13.77;;
36441;SDS011;64346;50.820;16.274;2023-02-22T08:48:25;27.95;;;11.52;;
36441;SDS011;64346;50.820;16.274;2023-02-22T08:50:53;28.98;;;13.45;;
36441;SDS011;64346;50.820;16.274;2023-02-22T08:53:20;28.92;;;13.93;;
36441;SDS011;64346;50.820;16.274;2023-02-22T08:55:47;32.05;;;12.98;;
36441;SDS011;64346;50.820;16.274;2023-02-22T08:58:15;25.05;;;11.30;;
36441;SDS011;64346;50.820;16.274;2023-02-22T09:00:42;25.63;;;10.85;;
36441;SDS011;64346;50.820;16.274;2023-02-22T09:03:10;21.70;;;9.70;;
36441;SDS011;64346;50.820;16.274;2023-02-22T09:05:41;24.67;;;9.63;;
36441;SDS011;64346;50.820;16.274;2023-02-22T09:08:09;29.33;;;10.85;;
36441;SDS011;64346;50.820;16.274;2023-02-22T09:10:37;24.52;;;9.48;;
36441;SDS011;64346;50.820;16.274;2023-02-22T09:13:04;24.20;;;9.25;;
36441;SDS011;64346;50.820;16.274;2023-02-22T09:15:32;21.23;;;8.65;;
36441;SDS011;64346;50.820;16.274;2023-02-22T09:18:00;22.95;;;8.80;;
36441;SDS011;64346;50.820;16.274;2023-02-22T09:20:28;26.30;;;9.07;;
36441;SDS011;64346;50.820;16.274;2023-02-22T09:22:59;25.25;;;8.27;;
36441;SDS011;64346;50.820;16.274;2023-02-22T09:25:26;17.85;;;8.85;;
36441;SDS011;64346;50.820;16.274;2023-02-22T09:27:54;16.70;;;7.63;;
36441;SDS011;64346;50.820;16.274;2023-02-22T09:30:23;19.48;;;7.70;;
36441;SDS011;64346;50.820;16.274;2023-02-22T09:32:56;18.88;;;7.00;;
36441;SDS011;64346;50.820;16.274;2023-02-22T09:35:25;19.95;;;8.70;;
36441;SDS011;64346;50.820;16.274;2023-02-22T09:37:58;23.42;;;9.38;;
36441;SDS011;64346;50.820;16.274;2023-02-22T09:40:27;19.58;;;7.35;;
36441;SDS011;64346;50.820;16.274;2023-02-22T09:43:08;18.67;;;7.18;;
36441;SDS011;64346;50.820;16.274;2023-02-22T09:48:33;16.15;;;7.05;;
36441;SDS011;64346;50.820;16.274;2023-02-22T09:51:06;18.38;;;7.55;;
36441;SDS011;64346;50.820;16.274;2023-02-22T09:53:50;17.20;;;6.25;;
36441;SDS011;64346;50.820;16.274;2023-02-22T09:56:25;19.48;;;6.13;;
36441;SDS011;64346;50.820;16.274;2023-02-22T09:59:04;14.98;;;6.55;;
36441;SDS011;64346;50.820;16.274;2023-02-22T10:01:38;16.13;;;5.97;;
36441;SDS011;64346;50.820;16.274;2023-02-22T10:09:42;18.20;;;6.60;;
36441;SDS011;64346;50.820;16.274;2023-02-22T10:12:13;16.55;;;6.18;;
36441;SDS011;64346;50.820;16.274;2023-02-22T10:17:39;14.68;;;6.85;;
36441;SDS011;64346;50.820;16.274;2023-02-22T10:20:17;14.52;;;6.32;;
36441;SDS011;64346;50.820;16.274;2023-02-22T10:25:33;13.45;;;5.25;;
36441;SDS011;64346;50.820;16.274;2023-02-22T10:31:03;12.68;;;4.70;;
36441;SDS011;64346;50.820;16.274;2023-02-22T10:33:37;12.32;;;4.13;;
36441;SDS011;64346;50.820;16.274;2023-02-22T10:36:19;11.63;;;4.75;;
36441;SDS011;64346;50.820;16.274;2023-02-22T10:38:54;10.60;;;4.50;;
36441;SDS011;64346;50.820;16.274;2023-02-22T10:41:32;11.25;;;4.22;;
36441;SDS011;64346;50.820;16.274;2023-02-22T10:44:02;9.30;;;3.67;;
36441;SDS011;64346;50.820;16.274;2023-02-22T10:46:32;12.40;;;4.28;;
36441;SDS011;64346;50.820;16.274;2023-02-22T10:49:01;12.60;;;4.97;;
36441;SDS011;64346;50.820;16.274;2023-02-22T10:51:31;14.75;;;4.22;;
36441;SDS011;64346;50.820;16.274;2023-02-22T10:56:51;14.57;;;5.53;;
36441;SDS011;64346;50.820;16.274;2023-02-22T10:59:27;14.45;;;4.78;;
36441;SDS011;64346;50.820;16.274;2023-02-22T11:02:07;14.25;;;4.95;;
36441;SDS011;64346;50.820;16.274;2023-02-22T11:04:52;17.45;;;4.70;;
36441;SDS011;64346;50.820;16.274;2023-02-22T11:09:57;16.40;;;4.95;;
36441;SDS011;64346;50.820;16.274;2023-02-22T11:12:33;17.88;;;4.43;;
36441;SDS011;64346;50.820;16.274;2023-02-22T11:17:45;15.20;;;4.35;;
36441;SDS011;64346;50.820;16.274;2023-02-22T11:20:19;13.52;;;4.72;;
36441;SDS011;64346;50.820;16.274;2023-02-22T11:22:51;14.70;;;4.63;;
36441;SDS011;64346;50.820;16.274;2023-02-22T11:25:41;15.10;;;5.00;;
36441;SDS011;64346;50.820;16.274;2023-02-22T11:28:18;15.52;;;4.70;;
36441;SDS011;64346;50.820;16.274;2023-02-22T11:30:51;15.25;;;4.47;;
36441;SDS011;64346;50.820;16.274;2023-02-22T11:33:19;17.40;;;5.22;;
36441;SDS011;64346;50.820;16.274;2023-02-22T11:38:25;16.25;;;6.18;;
36441;SDS011;64346;50.820;16.274;2023-02-22T11:41:04;13.75;;;4.50;;
36441;SDS011;64346;50.820;16.274;2023-02-22T11:43:35;14.65;;;4.40;;
36441;SDS011;64346;50.820;16.274;2023-02-22T11:46:07;13.05;;;4.20;;
36441;SDS011;64346;50.820;16.274;2023-02-22T11:48:41;12.45;;;4.38;;
36441;SDS011;64346;50.820;16.274;2023-02-22T12:11:24;13.70;;;4.13;;
36441;SDS011;64346;50.820;16.274;2023-02-22T12:17:12;14.85;;;4.60;;
36441;SDS011;64346;50.820;16.274;2023-02-22T12:19:53;17.48;;;5.10;;
36441;SDS011;64346;50.820;16.274;2023-02-22T12:22:32;13.23;;;4.43;;
36441;SDS011;64346;50.820;16.274;2023-02-22T12:30:17;14.43;;;5.38;;
36441;SDS011;64346;50.820;16.274;2023-02-22T12:32:50;15.75;;;4.90;;
36441;SDS011;64346;50.820;16.274;2023-02-22T12:35:33;13.48;;;4.72;;
36441;SDS011;64346;50.820;16.274;2023-02-22T12:38:20;14.30;;;4.65;;
36441;SDS011;64346;50.820;16.274;2023-02-22T12:41:02;15.43;;;4.93;;
36441;SDS011;64346;50.820;16.274;2023-02-22T12:51:22;16.17;;;5.50;;
36441;SDS011;64346;50.820;16.274;2023-02-22T12:59:32;17.55;;;5.50;;
36441;SDS011;64346;50.820;16.274;2023-02-22T13:02:25;17.15;;;6.50;;
36441;SDS011;64346;50.820;16.274;2023-02-22T13:04:54;19.02;;;5.65;;
36441;SDS011;64346;50.820;16.274;2023-02-22T13:07:29;14.57;;;5.20;;
36441;SDS011;64346;50.820;16.274;2023-02-22T13:10:40;14.35;;;4.85;;
36441;SDS011;64346;50.820;16.274;2023-02-22T13:13:27;18.73;;;5.78;;
36441;SDS011;64346;50.820;16.274;2023-02-22T13:18:48;17.83;;;6.43;;
36441;SDS011;64346;50.820;16.274;2023-02-22T13:27:19;17.92;;;5.93;;
36441;SDS011;64346;50.820;16.274;2023-02-22T13:29:48;21.08;;;5.82;;
36441;SDS011;64346;50.820;16.274;2023-02-22T13:32:35;17.90;;;5.70;;
36441;SDS011;64346;50.820;16.274;2023-02-22T13:35:15;17.73;;;5.47;;
36441;SDS011;64346;50.820;16.274;2023-02-22T13:49:17;17.23;;;6.22;;
36441;SDS011;64346;50.820;16.274;2023-02-22T13:52:06;18.23;;;5.63;;
36441;SDS011;64346;50.820;16.274;2023-02-22T13:54:45;25.42;;;6.97;;
36441;SDS011;64346;50.820;16.274;2023-02-22T13:57:17;27.75;;;6.80;;
36441;SDS011;64346;50.820;16.274;2023-02-22T14:00:37;20.58;;;6.60;;
36441;SDS011;64346;50.820;16.274;2023-02-22T14:08:06;20.38;;;6.05;;
36441;SDS011;64346;50.820;16.274;2023-02-22T14:10:55;23.83;;;6.80;;
36441;SDS011;64346;50.820;16.274;2023-02-22T14:13:26;18.42;;;6.15;;
36441;SDS011;64346;50.820;16.274;2023-02-22T14:18:28;17.38;;;6.03;;
36441;SDS011;64346;50.820;16.274;2023-02-22T14:21:06;18.00;;;5.90;;
36441;SDS011;64346;50.820;16.274;2023-02-22T14:23:39;22.15;;;6.22;;
36441;SDS011;64346;50.820;16.274;2023-02-22T14:26:13;24.77;;;7.13;;
36441;SDS011;64346;50.820;16.274;2023-02-22T14:28:57;15.68;;;5.80;;
36441;SDS011;64346;50.820;16.274;2023-02-22T14:31:32;22.77;;;6.43;;
36441;SDS011;64346;50.820;16.274;2023-02-22T14:34:10;17.02;;;5.22;;
36441;SDS011;64346;50.820;16.274;2023-02-22T14:42:35;19.95;;;6.60;;
36441;SDS011;64346;50.820;16.274;2023-02-22T14:45:25;22.58;;;6.63;;
36441;SDS011;64346;50.820;16.274;2023-02-22T14:53:07;20.92;;;6.35;;
36441;SDS011;64346;50.820;16.274;2023-02-22T14:55:55;23.02;;;7.95;;
36441;SDS011;64346;50.820;16.274;2023-02-22T15:04:26;23.55;;;7.35;;
36441;SDS011;64346;50.820;16.274;2023-02-22T15:06:56;25.52;;;7.35;;
36441;SDS011;64346;50.820;16.274;2023-02-22T15:09:29;26.35;;;7.13;;
36441;SDS011;64346;50.820;16.274;2023-02-22T15:14:32;24.55;;;8.15;;
36441;SDS011;64346;50.820;16.274;2023-02-22T15:17:02;26.63;;;7.40;;
36441;SDS011;64346;50.820;16.274;2023-02-22T15:19:36;23.60;;;7.20;;
36441;SDS011;64346;50.820;16.274;2023-02-22T15:22:17;29.42;;;8.05;;
36441;SDS011;64346;50.820;16.274;2023-02-22T15:27:35;29.77;;;8.55;;
36441;SDS011;64346;50.820;16.274;2023-02-22T15:32:52;25.67;;;8.00;;
36441;SDS011;64346;50.820;16.274;2023-02-22T15:35:30;21.08;;;7.25;;
36441;SDS011;64346;50.820;16.274;2023-02-22T15:37:59;27.02;;;8.95;;
36441;SDS011;64346;50.820;16.274;2023-02-22T15:40:31;28.52;;;9.18;;
36441;SDS011;64346;50.820;16.274;2023-02-22T15:43:00;28.23;;;8.68;;
36441;SDS011;64346;50.820;16.274;2023-02-22T15:45:32;32.75;;;9.40;;
36441;SDS011;64346;50.820;16.274;2023-02-22T15:47:59;24.10;;;9.13;;
36441;SDS011;64346;50.820;16.274;2023-02-22T15:50:31;31.10;;;9.88;;
36441;SDS011;64346;50.820;16.274;2023-02-22T15:53:05;41.25;;;10.90;;
36441;SDS011;64346;50.820;16.274;2023-02-22T15:55:35;34.63;;;10.30;;
36441;SDS011;64346;50.820;16.274;2023-02-22T15:58:19;24.67;;;8.57;;
36441;SDS011;64346;50.820;16.274;2023-02-22T16:00:57;24.15;;;9.45;;
36441;SDS011;64346;50.820;16.274;2023-02-22T16:03:37;31.83;;;9.82;;
36441;SDS011;64346;50.820;16.274;2023-02-22T16:06:07;25.15;;;8.77;;
36441;SDS011;64346;50.820;16.274;2023-02-22T16:08:43;25.40;;;9.57;;
36441;SDS011;64346;50.820;16.274;2023-02-22T16:11:23;33.85;;;10.25;;
36441;SDS011;64346;50.820;16.274;2023-02-22T16:13:53;32.00;;;10.15;;
36441;SDS011;64346;50.820;16.274;2023-02-22T16:16:26;30.05;;;9.82;;
36441;SDS011;64346;50.820;16.274;2023-02-22T16:22:21;29.17;;;8.82;;
36441;SDS011;64346;50.820;16.274;2023-02-22T16:25:14;24.15;;;9.07;;
36441;SDS011;64346;50.820;16.274;2023-02-22T16:28:00;26.70;;;9.40;;
36441;SDS011;64346;50.820;16.274;2023-02-22T16:30:54;32.08;;;11.60;;
36441;SDS011;64346;50.820;16.274;2023-02-22T16:33:23;30.73;;;11.65;;
36441;SDS011;64346;50.820;16.274;2023-02-22T16:35:50;30.73;;;10.70;;
36441;SDS011;64346;50.820;16.274;2023-02-22T16:38:20;30.60;;;10.65;;
36441;SDS011;64346;50.820;16.274;2023-02-22T16:40:49;32.75;;;9.88;;
36441;SDS011;64346;50.820;16.274;2023-02-22T16:43:22;25.08;;;9.88;;
36441;SDS011;64346;50.820;16.274;2023-02-22T16:45:59;28.40;;;10.77;;
36441;SDS011;64346;50.820;16.274;2023-02-22T16:48:29;21.05;;;8.23;;
36441;SDS011;64346;50.820;16.274;2023-02-22T16:51:00;31.25;;;8.90;;
36441;SDS011;64346;50.820;16.274;2023-02-22T16:53:33;28.13;;;9.13;;
36441;SDS011;64346;50.820;16.274;2023-02-22T16:56:03;25.80;;;8.85;;
36441;SDS011;64346;50.820;16.274;2023-02-22T16:58:36;26.27;;;9.10;;
36441;SDS011;64346;50.820;16.274;2023-02-22T17:01:06;28.40;;;9.23;;
36441;SDS011;64346;50.820;16.274;2023-02-22T17:03:33;28.48;;;9.27;;
36441;SDS011;64346;50.820;16.274;2023-02-22T17:06:03;29.20;;;9.85;;
36441;SDS011;64346;50.820;16.274;2023-02-22T17:08:31;30.58;;;9.52;;
36441;SDS011;64346;50.820;16.274;2023-02-22T17:10:58;32.72;;;10.43;;
36441;SDS011;64346;50.820;16.274;2023-02-22T17:13:26;29.35;;;9.68;;
36441;SDS011;64346;50.820;16.274;2023-02-22T17:15:54;26.23;;;10.73;;
36441;SDS011;64346;50.820;16.274;2023-02-22T17:18:23;38.97;;;13.35;;
36441;SDS011;64346;50.820;16.274;2023-02-22T17:20:52;40.67;;;14.90;;
36441;SDS011;64346;50.820;16.274;2023-02-22T17:23:20;31.40;;;10.85;;
36441;SDS011;64346;50.820;16.274;2023-02-22T17:28:17;40.28;;;16.23;;
36441;SDS011;64346;50.820;16.274;2023-02-22T17:30:45;37.92;;;15.48;;
36441;SDS011;64346;50.820;16.274;2023-02-22T17:33:17;38.70;;;15.73;;
36441;SDS011;64346;50.820;16.274;2023-02-22T17:35:46;30.95;;;14.07;;
36441;SDS011;64346;50.820;16.274;2023-02-22T17:38:14;31.45;;;11.95;;
36441;SDS011;64346;50.820;16.274;2023-02-22T17:40:41;28.60;;;12.77;;
36441;SDS011;64346;50.820;16.274;2023-02-22T17:43:11;31.25;;;12.85;;
36441;SDS011;64346;50.820;16.274;2023-02-22T17:45:40;38.10;;;12.23;;